Time;durP1;ratioP1;P1;durP2;ratioP2;P2;SDS_P1;SDS_P2;PMS_P1;PMS_P2;Temp;Humidity;BMP_temperature;BMP_pressure;BME280_temperature;BME280_humidity;BME280_pressure;Samples;Min_cycle;Max_cycle;Signal;HPM_P1;HPM_P2
2021/11/14 00:02:12;;;;;;;23.77;7.70;;;;;;;11.39;71.08;97057.97;5031047;28;20532;-80
2021/11/14 00:04:38;;;;;;;11.02;6.30;;;;;;;11.41;71.25;97059.31;5068983;28;20033;-80
2021/11/14 00:07:04;;;;;;;10.73;6.22;;;;;;;11.43;71.00;97062.44;5035102;28;20035;-80
2021/11/14 00:09:30;;;;;;;8.95;5.22;;;;;;;11.44;71.09;97064.00;5034910;28;20054;-80
2021/11/14 00:11:56;;;;;;;14.25;6.43;;;;;;;11.44;71.33;97064.00;5035684;28;20028;-80
2021/11/14 00:14:21;;;;;;;12.85;5.95;;;;;;;11.43;71.21;97054.63;5051921;28;20101;-80
2021/11/14 00:16:47;;;;;;;15.27;6.70;;;;;;;11.42;70.95;97058.25;5018990;28;20231;-80
2021/11/14 00:19:13;;;;;;;9.82;5.90;;;;;;;11.46;71.36;97057.75;5031739;28;20040;-80
2021/11/14 00:21:41;;;;;;;15.82;6.65;;;;;;;11.40;71.22;97059.56;5065557;28;20413;-80
2021/11/14 00:24:10;;;;;;;10.52;5.57;;;;;;;11.43;71.10;97056.44;5051797;28;20040;-80
2021/11/14 00:26:36;;;;;;;14.18;5.25;;;;;;;11.41;71.15;97054.09;5052216;28;20456;-80
2021/11/14 00:29:01;;;;;;;8.60;5.40;;;;;;;11.44;71.06;97055.38;5068589;28;20060;-80
2021/11/14 00:31:27;;;;;;;18.70;7.40;;;;;;;11.43;71.11;97059.06;5033655;28;20153;-80
2021/11/14 00:33:52;;;;;;;8.15;5.57;;;;;;;11.47;71.23;97048.91;5035035;28;20032;-80
2021/11/14 00:36:21;;;;;;;12.52;6.38;;;;;;;11.38;71.17;97054.59;5069839;28;20110;-80
2021/11/14 00:38:47;;;;;;;8.70;4.68;;;;;;;11.46;71.07;97052.53;5051984;28;20036;-80
2021/11/14 00:41:13;;;;;;;8.00;4.75;;;;;;;11.48;70.93;97051.25;5051031;28;20047;-79
2021/11/14 00:43:39;;;;;;;9.13;5.50;;;;;;;11.47;71.20;97056.72;5047348;28;20041;-79
2021/11/14 00:46:06;;;;;;;9.43;5.15;;;;;;;11.44;70.95;97061.38;5053180;28;20131;-79
2021/11/14 00:48:32;;;;;;;7.90;4.95;;;;;;;11.44;71.31;97055.38;5061109;28;20157;-80
2021/11/14 00:51:01;;;;;;;7.93;4.57;;;;;;;11.47;70.85;97060.09;5037694;28;20032;-80
2021/11/14 00:53:26;;;;;;;7.93;4.43;;;;;;;11.47;70.72;97064.53;5069474;28;20029;-80
2021/11/14 00:55:52;;;;;;;8.15;5.32;;;;;;;11.48;71.06;97066.09;5051328;28;20533;-80
2021/11/14 00:58:17;;;;;;;11.07;5.50;;;;;;;11.46;70.85;97053.31;5033952;28;20090;-79
2021/11/14 01:00:42;;;;;;;8.63;4.90;;;;;;;11.44;70.96;97052.78;5031093;28;20094;-80
2021/11/14 01:03:09;;;;;;;7.50;4.68;;;;;;;11.40;71.15;97062.94;5031486;28;20835;-80
2021/11/14 01:05:35;;;;;;;10.00;4.90;;;;;;;11.40;70.88;97067.38;5031411;28;20047;-80
2021/11/14 01:08:02;;;;;;;8.90;4.50;;;;;;;11.38;71.25;97062.41;5034963;28;20025;-80
2021/11/14 01:10:31;;;;;;;7.72;3.70;;;;;;;11.35;71.43;97068.13;5051440;28;20494;-80
2021/11/14 01:12:57;;;;;;;10.68;4.93;;;;;;;11.39;71.23;97074.38;5015529;28;20119;-80
2021/11/14 01:15:24;;;;;;;15.90;5.53;;;;;;;11.37;71.46;97071.25;5050604;28;20032;-80
2021/11/14 01:17:50;;;;;;;7.93;5.03;;;;;;;11.37;71.42;97068.66;5034271;28;20059;-80
2021/11/14 01:20:24;;;;;;;9.77;5.25;;;;;;;11.18;71.64;97063.06;5046279;28;20056;-80
2021/11/14 01:22:51;;;;;;;10.02;4.88;;;;;;;11.33;71.56;97064.97;5051188;28;20024;-80
2021/11/14 01:25:17;;;;;;;7.57;4.47;;;;;;;11.37;71.71;97065.25;5050617;28;20299;-80
2021/11/14 01:27:44;;;;;;;13.50;5.70;;;;;;;11.34;71.27;97066.53;5049315;28;20369;-80
2021/11/14 01:30:14;;;;;;;15.77;5.85;;;;;;;11.29;71.16;97069.09;5050678;28;20398;-80
2021/11/14 01:32:40;;;;;;;12.35;5.22;;;;;;;11.35;71.19;97069.94;5018174;28;20052;-80
2021/11/14 01:35:07;;;;;;;15.57;6.28;;;;;;;11.32;71.18;97076.44;5034173;28;20031;-80
2021/11/14 01:37:33;;;;;;;27.20;7.65;;;;;;;11.34;71.57;97076.19;5051153;28;20315;-80
2021/11/14 01:39:58;;;;;;;16.48;6.22;;;;;;;11.32;71.57;97078.25;5034583;28;20063;-80
2021/11/14 01:42:24;;;;;;;32.60;7.00;;;;;;;11.28;71.29;97080.59;5058857;28;20040;-79
2021/11/14 01:44:49;;;;;;;107.45;11.63;;;;;;;11.23;71.34;97075.34;5070346;28;20657;-79
2021/11/14 01:47:15;;;;;;;51.08;7.63;;;;;;;11.25;71.36;97088.91;5034243;28;20106;-80
2021/11/14 01:49:41;;;;;;;49.45;7.15;;;;;;;11.26;71.73;97087.88;5033656;28;20037;-80
2021/11/14 01:52:17;;;;;;;75.00;7.88;;;;;;;11.06;71.78;97083.28;5034313;28;20119;-80
2021/11/14 01:54:43;;;;;;;59.90;7.38;;;;;;;11.28;71.47;97083.19;5016755;28;20037;-80
2021/11/14 01:57:08;;;;;;;46.22;7.10;;;;;;;11.30;71.17;97086.34;5033745;28;20541;-80
2021/11/14 01:59:35;;;;;;;56.53;7.43;;;;;;;11.27;71.48;97086.03;5034049;28;20367;-80
2021/11/14 02:02:00;;;;;;;75.70;8.30;;;;;;;11.25;71.64;97088.91;5037722;28;20033;-80
2021/11/14 02:04:26;;;;;;;127.05;12.27;;;;;;;11.20;71.54;97081.81;5046997;28;20091;-80
2021/11/14 02:06:51;;;;;;;68.57;8.07;;;;;;;11.22;71.29;97086.78;5049347;28;20433;-80
2021/11/14 02:09:17;;;;;;;36.28;4.85;;;;;;;11.24;71.40;97092.53;5042689;28;20029;-80
2021/11/14 02:11:43;;;;;;;33.65;4.80;;;;;;;11.24;71.52;97089.94;5033879;28;20033;-80
2021/11/14 02:14:08;;;;;;;21.65;4.22;;;;;;;11.26;71.76;97090.47;5019582;28;20032;-80
2021/11/14 02:16:33;;;;;;;33.70;5.32;;;;;;;11.25;71.34;97087.06;5070654;28;20032;-80
2021/11/14 02:18:59;;;;;;;29.63;6.15;;;;;;;11.25;71.44;97099.31;5053763;28;20036;-79
2021/11/14 02:21:24;;;;;;;45.97;7.53;;;;;;;11.23;71.55;97096.97;5053593;28;20035;-80
2021/11/14 02:23:51;;;;;;;46.03;6.95;;;;;;;11.23;71.53;97096.19;5036987;28;20039;-80
2021/11/14 02:26:16;;;;;;;13.70;4.78;;;;;;;11.24;71.51;97095.94;5049869;28;20549;-80
2021/11/14 02:28:42;;;;;;;22.70;5.95;;;;;;;11.24;71.59;97097.75;5017181;28;20225;-80
2021/11/14 02:31:08;;;;;;;23.63;5.70;;;;;;;11.26;71.71;97100.91;5029637;28;20545;-79
2021/11/14 02:33:33;;;;;;;23.50;5.47;;;;;;;11.26;71.55;97095.69;5030817;28;20029;-80
2021/11/14 02:36:04;;;;;;;50.60;7.97;;;;;;;11.17;71.45;97103.19;5031194;28;20108;-80
2021/11/14 02:38:30;;;;;;;38.35;5.70;;;;;;;11.29;71.71;97103.00;5030810;28;20112;-79
2021/11/14 02:40:56;;;;;;;14.23;4.35;;;;;;;11.28;71.43;97104.03;5036269;28;20151;-79
2021/11/14 02:43:22;;;;;;;19.33;4.50;;;;;;;11.32;71.54;97104.31;5049303;28;20063;-79
2021/11/14 02:45:48;;;;;;;36.13;6.97;;;;;;;11.33;71.42;97101.47;5050990;28;20419;-80
2021/11/14 02:48:14;;;;;;;10.15;4.75;;;;;;;11.29;71.41;97105.59;5050295;28;20116;-80
2021/11/14 02:50:41;;;;;;;26.27;5.82;;;;;;;11.29;71.64;97105.59;5049786;28;20083;-80
2021/11/14 02:53:07;;;;;;;40.70;7.22;;;;;;;11.29;71.34;97110.03;5067417;28;20086;-80
2021/11/14 02:55:33;;;;;;;50.72;6.10;;;;;;;11.25;71.49;97109.75;5050073;28;20036;-79
2021/11/14 02:57:58;;;;;;;62.13;7.93;;;;;;;11.22;71.61;97111.06;5033711;28;20032;-80
2021/11/14 03:00:34;;;;;;;117.47;10.18;;;;;;;11.03;71.66;97108.00;5050941;28;20040;-80
2021/11/14 03:03:00;;;;;;;104.03;9.63;;;;;;;11.18;71.51;97115.16;5050676;28;20437;-80
2021/11/14 03:05:25;;;;;;;56.40;6.22;;;;;;;11.18;71.90;97117.00;5050148;28;20025;-80
2021/11/14 03:07:51;;;;;;;46.63;5.85;;;;;;;11.16;71.69;97113.88;5050536;28;20109;-80
2021/11/14 03:10:21;;;;;;;98.60;10.18;;;;;;;11.08;71.89;97114.31;5050980;28;20079;-80
2021/11/14 03:13:07;;;;;;;68.85;8.25;;;;;;;10.92;72.05;97111.59;5050020;28;20067;-80
2021/11/14 03:15:37;;;;;;;55.92;7.40;;;;;;;10.99;72.07;97117.38;5033426;28;20036;-79
2021/11/14 03:18:04;;;;;;;71.78;7.47;;;;;;;11.03;72.21;97118.44;5034472;28;20029;-79
2021/11/14 03:20:30;;;;;;;106.97;10.95;;;;;;;10.97;72.19;97122.06;5032131;28;20028;-79
2021/11/14 03:22:55;;;;;;;39.53;4.63;;;;;;;10.98;72.67;97121.00;5068467;28;20036;-79
2021/11/14 03:25:23;;;;;;;100.53;9.48;;;;;;;10.89;72.48;97122.50;5068941;28;20112;-80
2021/11/14 03:27:50;;;;;;;83.03;8.60;;;;;;;10.98;71.98;97123.59;5050401;28;20044;-80
2021/11/14 03:30:16;;;;;;;70.95;6.32;;;;;;;10.98;72.13;97120.22;5013008;28;20032;-80
2021/11/14 03:32:41;;;;;;;212.60;15.55;;;;;;;10.95;71.85;97124.13;5033784;28;20061;-79
2021/11/14 03:35:07;;;;;;;305.15;21.92;;;;;;;10.87;72.32;97114.16;5033277;28;20032;-79
2021/11/14 03:37:33;;;;;;;186.75;14.23;;;;;;;10.89;72.29;97129.53;5033747;28;20055;-80
2021/11/14 03:39:59;;;;;;;82.65;8.07;;;;;;;10.85;72.42;97126.63;5050236;28;20149;-79
2021/11/14 03:42:24;;;;;;;106.03;8.25;;;;;;;10.89;72.47;97129.53;5023249;28;20487;-79
2021/11/14 03:44:50;;;;;;;147.98;12.38;;;;;;;10.80;72.41;97134.41;5070460;28;20032;-80
2021/11/14 03:47:15;;;;;;;107.55;9.98;;;;;;;10.79;72.44;97135.41;5053866;28;20040;-79
2021/11/14 03:49:41;;;;;;;135.60;11.68;;;;;;;10.73;72.53;97134.59;5051572;28;20363;-78
2021/11/14 03:52:09;;;;;;;108.43;10.20;;;;;;;10.63;72.54;97148.28;5043718;28;20040;-77
2021/11/14 03:54:34;;;;;;;136.65;10.30;;;;;;;10.54;72.86;97138.56;5050003;28;20385;-79
2021/11/14 03:56:59;;;;;;;46.10;4.90;;;;;;;10.61;72.94;97147.75;5033820;28;20025;-79
2021/11/14 03:59:25;;;;;;;18.13;2.65;;;;;;;10.60;72.58;97143.56;5050175;28;20033;-79
2021/11/14 04:01:50;;;;;;;3.72;1.50;;;;;;;10.63;72.39;97148.28;5033680;28;20035;-78
2021/11/14 04:04:16;;;;;;;5.57;1.85;;;;;;;10.37;73.43;97149.06;5050217;28;20043;-79
2021/11/14 04:06:41;;;;;;;3.88;1.70;;;;;;;10.49;72.98;97147.13;5049716;28;20025;-80
2021/11/14 04:09:07;;;;;;;3.85;1.70;;;;;;;10.27;73.28;97153.06;5050437;28;20024;-78
2021/11/14 04:11:32;;;;;;;1.70;1.30;;;;;;;10.24;73.38;97153.56;5050815;28;20032;-77
2021/11/14 04:13:57;;;;;;;3.33;1.67;;;;;;;10.12;73.84;97152.91;5033612;28;20234;-79
2021/11/14 04:16:24;;;;;;;2.35;1.73;;;;;;;10.20;74.07;97157.69;5050027;28;20039;-79
2021/11/14 04:18:49;;;;;;;2.90;1.48;;;;;;;10.28;73.24;97159.06;5067322;28;20099;-78
2021/11/14 04:21:15;;;;;;;2.50;1.60;;;;;;;10.55;72.39;97158.34;5050365;28;20450;-78
2021/11/14 04:23:40;;;;;;;2.10;1.60;;;;;;;10.74;71.43;97164.03;5068183;28;20040;-78
2021/11/14 04:26:07;;;;;;;2.38;1.50;;;;;;;10.69;71.63;97151.72;5037768;28;20024;-79
2021/11/14 04:28:33;;;;;;;1.52;1.42;;;;;;;10.74;71.74;97153.59;5070248;28;20119;-78
2021/11/14 04:30:59;;;;;;;1.67;1.20;;;;;;;10.77;71.38;97159.09;5047927;28;20032;-78
2021/11/14 04:33:24;;;;;;;1.45;1.23;;;;;;;10.85;70.87;97163.88;5049794;28;20036;-79
2021/11/14 04:35:50;;;;;;;1.65;1.33;;;;;;;10.71;71.40;97164.50;5050368;28;20386;-78
2021/11/14 04:38:16;;;;;;;1.63;1.40;;;;;;;10.72;71.32;97160.88;5050446;28;20044;-78
2021/11/14 04:40:42;;;;;;;1.73;1.30;;;;;;;10.69;71.46;97154.34;5033504;28;20060;-79
2021/11/14 04:43:11;;;;;;;1.35;1.15;;;;;;;10.54;71.79;97165.38;5016130;28;20399;-79
2021/11/14 04:45:37;;;;;;;9.43;1.58;;;;;;;10.62;71.28;97170.13;5016951;28;20548;-79
2021/11/14 04:48:04;;;;;;;1.35;0.93;;;;;;;10.62;71.65;97170.13;5050829;28;20430;-79
2021/11/14 04:50:30;;;;;;;1.35;1.20;;;;;;;10.74;71.31;97175.22;5053748;28;20032;-80
2021/11/14 04:52:56;;;;;;;1.40;1.30;;;;;;;10.71;71.22;97172.31;5036805;28;20047;-78
2021/11/14 04:55:22;;;;;;;1.20;1.10;;;;;;;10.74;71.07;97172.63;5036539;28;20021;-79
2021/11/14 04:57:51;;;;;;;1.38;1.10;;;;;;;10.86;70.51;97175.88;5028663;28;20112;-79
2021/11/14 05:00:38;;;;;;;1.65;1.48;;;;;;;10.77;70.55;97176.56;5033763;28;20036;-78
2021/11/14 05:03:04;;;;;;;1.45;1.30;;;;;;;10.55;71.67;97173.97;5033106;28;20141;-79
2021/11/14 05:05:30;;;;;;;1.33;1.20;;;;;;;10.58;71.35;97178.69;5033333;28;20029;-79
2021/11/14 05:07:55;;;;;;;3.50;1.80;;;;;;;10.71;71.21;97182.72;5051902;28;20035;-79
2021/11/14 05:10:21;;;;;;;1.77;1.55;;;;;;;10.70;71.14;97181.19;5053893;28;20414;-79
2021/11/14 05:12:46;;;;;;;3.90;1.55;;;;;;;10.63;71.32;97182.13;5070161;28;20028;-78
2021/11/14 05:15:12;;;;;;;3.67;1.58;;;;;;;10.66;71.50;97186.88;5053061;28;20033;-78
2021/11/14 05:17:37;;;;;;;4.22;1.85;;;;;;;10.76;71.02;97190.59;5036517;28;20111;-79
2021/11/14 05:20:04;;;;;;;3.67;1.98;;;;;;;10.56;71.51;97189.34;5069530;28;20521;-78
2021/11/14 05:22:30;;;;;;;10.30;2.90;;;;;;;10.62;71.37;97190.19;5065885;28;20040;-77
2021/11/14 05:24:58;;;;;;;11.95;3.25;;;;;;;10.43;71.58;97198.31;5053048;28;20059;-78
2021/11/14 05:27:23;;;;;;;15.52;4.30;;;;;;;10.78;71.17;97198.94;5069580;28;20032;-79
2021/11/14 05:29:49;;;;;;;35.15;5.32;;;;;;;10.77;70.61;97203.38;5034931;28;20024;-79
2021/11/14 05:32:14;;;;;;;31.40;4.35;;;;;;;10.74;71.14;97206.47;5048352;28;20060;-79
2021/11/14 05:34:40;;;;;;;21.67;4.00;;;;;;;10.55;71.65;97202.63;5049431;28;20433;-79
2021/11/14 05:37:07;;;;;;;11.38;3.60;;;;;;;10.67;71.28;97219.66;5050010;28;20048;-79
2021/11/14 05:39:32;;;;;;;10.63;4.20;;;;;;;10.72;71.15;97211.13;5054736;28;20020;-79
2021/11/14 05:41:58;;;;;;;47.10;6.43;;;;;;;10.65;71.22;97216.53;5052889;28;20078;-78
2021/11/14 05:44:23;;;;;;;17.42;4.93;;;;;;;10.34;72.27;97219.81;5072703;28;20059;-79
2021/11/14 05:46:49;;;;;;;14.32;4.68;;;;;;;10.20;73.08;97219.34;5091077;28;20044;-78
2021/11/14 05:49:14;;;;;;;22.10;5.22;;;;;;;10.24;73.05;97220.44;5054510;28;20036;-79
2021/11/14 05:51:40;;;;;;;20.00;5.35;;;;;;;10.20;73.06;97217.53;5035447;28;20028;-79
2021/11/14 05:54:06;;;;;;;168.55;16.42;;;;;;;10.12;73.44;97228.34;5035325;28;20103;-79
2021/11/14 05:56:32;;;;;;;80.28;11.80;;;;;;;10.11;73.57;97230.16;5070893;28;20033;-79
2021/11/14 06:07:06;;;;;;;69.78;8.77;;;;;;;10.18;73.31;97247.41;5023693;28;20040;-79
2021/11/14 06:09:31;;;;;;;69.97;8.77;;;;;;;10.15;73.22;97248.69;5051085;28;20037;-79
2021/11/14 06:11:57;;;;;;;75.38;9.55;;;;;;;10.04;73.38;97249.56;5026643;28;20111;-79
2021/11/14 06:14:22;;;;;;;72.90;10.00;;;;;;;10.09;73.57;97252.22;5050939;28;20036;-78
2021/11/14 06:16:47;;;;;;;103.88;10.88;;;;;;;10.02;73.94;97259.41;5050603;28;20107;-78
2021/11/14 06:19:13;;;;;;;109.60;12.30;;;;;;;10.02;74.02;97260.19;5034676;28;20044;-77
2021/11/14 06:21:41;;;;;;;134.13;14.80;;;;;;;9.90;74.00;97268.09;5068226;28;20043;-79
2021/11/14 06:24:07;;;;;;;47.10;7.13;;;;;;;10.19;73.76;97270.59;5050399;28;20086;-79
2021/11/14 06:26:32;;;;;;;85.82;11.77;;;;;;;10.45;72.26;97269.16;5035141;28;20040;-78
2021/11/14 06:28:58;;;;;;;102.32;12.50;;;;;;;10.55;71.81;97273.69;5052260;28;20024;-79
2021/11/14 06:31:23;;;;;;;124.43;13.90;;;;;;;10.67;71.28;97278.78;5011638;28;20082;-79
2021/11/14 06:33:49;;;;;;;124.90;12.75;;;;;;;10.54;71.81;97272.13;5051696;28;20043;-79
2021/11/14 06:36:15;;;;;;;70.03;9.70;;;;;;;10.54;71.79;97279.13;5052167;28;20033;-79
2021/11/14 06:38:40;;;;;;;110.22;11.50;;;;;;;10.54;71.65;97284.34;5035545;28;20021;-79
2021/11/14 06:41:06;;;;;;;76.65;9.75;;;;;;;10.29;72.76;97285.56;5052160;28;20435;-78
2021/11/14 06:43:31;;;;;;;72.25;10.18;;;;;;;10.12;73.25;97288.97;5031130;28;20663;-78
2021/11/14 06:45:56;;;;;;;85.00;9.82;;;;;;;10.14;73.45;97296.53;5035026;28;20025;-79
2021/11/14 06:48:22;;;;;;;47.05;7.40;;;;;;;9.98;74.06;97297.34;5043959;28;20028;-78
2021/11/14 06:50:48;;;;;;;32.50;6.88;;;;;;;10.03;73.64;97302.63;5037687;28;20036;-78
2021/11/14 06:53:13;;;;;;;16.52;5.30;;;;;;;10.06;73.62;97307.34;5071349;28;20032;-79
2021/11/14 06:55:39;;;;;;;16.35;5.80;;;;;;;10.18;73.52;97313.25;5071365;28;20417;-79
2021/11/14 06:58:04;;;;;;;17.13;5.82;;;;;;;10.00;73.79;97305.69;5038420;28;20047;-79
2021/11/14 07:00:31;;;;;;;17.05;6.50;;;;;;;10.17;73.39;97316.09;5053024;28;20126;-79
2021/11/14 07:02:57;;;;;;;10.82;5.00;;;;;;;10.20;73.28;97323.44;5051148;28;20119;-79
2021/11/14 07:05:22;;;;;;;12.27;4.93;;;;;;;10.16;73.42;97327.50;5051726;28;20111;-79
2021/11/14 07:07:47;;;;;;;22.45;5.78;;;;;;;10.14;73.64;97338.16;5035025;28;20106;-78
2021/11/14 07:10:15;;;;;;;28.33;7.22;;;;;;;10.13;73.40;97334.78;5051179;28;20107;-79
2021/11/14 07:12:41;;;;;;;108.90;63.85;;;;;;;10.03;73.97;97334.63;5033982;28;20032;-78
2021/11/14 07:15:10;;;;;;;12.93;7.72;;;;;;;10.01;73.92;97341.09;5018006;28;20102;-79
2021/11/14 07:17:35;;;;;;;36.50;25.17;;;;;;;10.15;73.47;97334.53;5035288;28;20039;-78
2021/11/14 07:20:01;;;;;;;54.63;12.13;;;;;;;10.22;73.34;97342.19;5050678;28;20037;-79
2021/11/14 07:22:27;;;;;;;14.65;6.65;;;;;;;10.19;73.50;97347.88;5031734;28;20031;-79
2021/11/14 07:24:53;;;;;;;17.73;10.60;;;;;;;10.12;73.58;97350.63;5061117;28;20020;-79
2021/11/14 07:27:19;;;;;;;20.45;5.03;;;;;;;10.20;73.67;97354.66;5054582;28;20028;-78
2021/11/14 07:29:44;;;;;;;11.90;4.13;;;;;;;10.15;73.61;97355.34;5036032;28;20021;-79
2021/11/14 07:32:10;;;;;;;9.93;3.83;;;;;;;10.22;73.61;97352.59;5044086;28;20471;-79
2021/11/14 07:34:36;;;;;;;45.38;7.03;;;;;;;10.04;74.13;97361.41;5047258;28;20032;-78
2021/11/14 07:37:01;;;;;;;8.48;3.92;;;;;;;10.10;73.96;97370.88;5069332;28;20025;-78
2021/11/14 07:39:27;;;;;;;6.95;3.30;;;;;;;10.10;73.80;97370.88;5034338;28;20021;-78
2021/11/14 07:41:52;;;;;;;6.43;3.97;;;;;;;10.22;73.66;97371.59;5050433;28;20466;-79
2021/11/14 07:44:18;;;;;;;8.65;4.57;;;;;;;10.27;73.25;97374.28;5050219;28;20394;-79
2021/11/14 07:46:43;;;;;;;9.73;6.40;;;;;;;10.22;73.18;97376.78;5034206;28;20035;-78
2021/11/14 07:49:08;;;;;;;54.75;12.48;;;;;;;10.16;73.71;97375.16;5056045;28;20502;-78
2021/11/14 07:51:34;;;;;;;14.95;6.20;;;;;;;10.08;73.78;97381.53;5025449;28;20028;-79
2021/11/14 07:54:00;;;;;;;28.05;6.40;;;;;;;10.09;74.06;97382.31;5037664;28;20098;-79
2021/11/14 07:56:26;;;;;;;46.90;10.45;;;;;;;10.08;73.95;97378.16;5051163;28;20406;-78
2021/11/14 07:58:52;;;;;;;12.52;6.63;;;;;;;10.23;73.83;97383.59;5034210;28;20024;-79
2021/11/14 08:01:17;;;;;;;13.60;7.35;;;;;;;10.34;73.29;97381.19;5068140;28;20059;-79
2021/11/14 08:03:43;;;;;;;10.13;7.05;;;;;;;10.38;73.23;97383.03;5033363;28;20131;-79
2021/11/14 08:06:08;;;;;;;13.48;7.78;;;;;;;10.45;72.80;97388.09;5033754;28;20017;-79
2021/11/14 08:08:34;;;;;;;9.85;6.60;;;;;;;10.53;72.81;97376.50;5033766;28;20509;-79
2021/11/14 08:10:59;;;;;;;16.58;11.00;;;;;;;10.50;72.74;97385.56;5017120;28;20032;-79
2021/11/14 08:13:24;;;;;;;13.57;6.88;;;;;;;10.41;73.06;97384.41;5017474;28;20040;-79
2021/11/14 08:15:50;;;;;;;18.20;11.93;;;;;;;10.49;72.90;97386.59;5068386;28;20052;-79
2021/11/14 08:18:17;;;;;;;13.45;7.53;;;;;;;10.48;73.16;97391.00;5035241;28;20501;-79
2021/11/14 08:20:43;;;;;;;26.60;12.93;;;;;;;10.53;73.09;97387.69;5033978;28;20072;-79
2021/11/14 08:23:08;;;;;;;19.25;12.80;;;;;;;10.53;72.96;97381.72;5058782;28;20135;-79
2021/11/14 08:25:34;;;;;;;19.10;10.23;;;;;;;10.52;73.29;97387.94;5037574;28;20031;-79
2021/11/14 08:28:00;;;;;;;14.88;9.68;;;;;;;10.64;72.86;97384.22;5020659;28;20036;-79
2021/11/14 08:30:26;;;;;;;10.40;6.90;;;;;;;10.66;72.74;97394.41;5050371;28;20032;-79
2021/11/14 08:32:52;;;;;;;7.95;5.20;;;;;;;10.58;73.49;97392.19;5033764;28;20025;-79
2021/11/14 08:35:18;;;;;;;28.67;18.65;;;;;;;10.65;72.92;97390.22;5017920;28;20033;-79
2021/11/14 08:37:44;;;;;;;11.85;6.65;;;;;;;10.74;72.94;97401.00;5033887;28;20119;-79
2021/11/14 08:40:11;;;;;;;8.70;5.68;;;;;;;10.63;73.55;97406.06;5025816;28;20434;-78
2021/11/14 08:42:37;;;;;;;12.50;6.40;;;;;;;10.79;73.13;97408.91;5053544;28;20028;-79
2021/11/14 08:45:03;;;;;;;14.40;9.40;;;;;;;10.67;73.35;97407.16;5053173;28;20035;-79
2021/11/14 08:47:29;;;;;;;12.18;8.35;;;;;;;10.77;73.27;97408.34;5037056;28;20564;-77
2021/11/14 08:49:54;;;;;;;12.68;8.85;;;;;;;10.73;73.86;97418.47;5057066;28;20063;-78
2021/11/14 08:52:20;;;;;;;12.93;6.45;;;;;;;10.89;73.16;97418.66;5072772;28;20474;-78
2021/11/14 08:54:45;;;;;;;9.95;6.13;;;;;;;10.97;72.71;97416.44;5053308;28;20607;-79
2021/11/14 08:57:10;;;;;;;13.52;7.22;;;;;;;10.95;73.21;97423.72;5020339;28;20068;-78
2021/11/14 08:59:38;;;;;;;17.88;9.57;;;;;;;10.90;73.10;97431.47;5053600;28;20086;-79
2021/11/14 09:02:03;;;;;;;22.90;13.57;;;;;;;10.80;73.28;97432.09;5053588;28;20056;-78
2021/11/14 09:04:29;;;;;;;16.60;8.23;;;;;;;10.76;73.52;97445.81;5037181;28;20075;-78
2021/11/14 09:06:55;;;;;;;24.42;13.15;;;;;;;10.71;73.30;97443.16;5053520;28;20394;-77
2021/11/14 09:09:21;;;;;;;14.52;9.30;;;;;;;10.61;73.72;97447.19;5072092;28;20043;-79
2021/11/14 09:11:47;;;;;;;13.90;9.45;;;;;;;10.52;73.94;97455.63;5036942;28;20064;-78
2021/11/14 09:14:13;;;;;;;14.90;7.78;;;;;;;10.68;73.80;97460.84;5036388;28;20064;-79
2021/11/14 09:16:39;;;;;;;12.73;8.05;;;;;;;10.74;73.50;97463.50;5036828;28;20060;-79
2021/11/14 09:19:06;;;;;;;15.00;7.47;;;;;;;10.78;73.03;97464.59;5070929;28;20067;-79
2021/11/14 09:21:32;;;;;;;12.90;6.65;;;;;;;10.96;72.71;97466.97;5035285;28;20043;-79
2021/11/14 09:23:57;;;;;;;22.40;7.97;;;;;;;10.82;73.17;97461.28;5026707;28;20082;-78
2021/11/14 09:26:23;;;;;;;26.75;8.85;;;;;;;10.78;73.11;97467.22;5048730;28;20036;-78
2021/11/14 09:28:48;;;;;;;18.05;8.73;;;;;;;10.82;73.23;97470.94;5035507;28;20032;-78
2021/11/14 09:31:14;;;;;;;67.75;12.70;;;;;;;10.66;73.70;97475.13;5038078;28;20055;-78
2021/11/14 09:33:40;;;;;;;51.20;11.95;;;;;;;10.67;73.83;97469.66;5055580;28;20024;-78
2021/11/14 09:36:07;;;;;;;86.88;14.48;;;;;;;10.61;73.79;97475.84;5072964;28;20364;-77
2021/11/14 09:38:34;;;;;;;68.80;13.65;;;;;;;10.69;73.69;97472.03;5073054;28;20156;-79
2021/11/14 09:41:03;;;;;;;54.60;13.80;;;;;;;10.55;74.11;97484.56;5051996;28;20044;-78
2021/11/14 09:43:28;;;;;;;76.45;15.20;;;;;;;10.66;73.92;97481.13;5049599;28;20290;-78
2021/11/14 09:45:54;;;;;;;92.75;16.92;;;;;;;10.86;73.59;97474.63;5052600;28;20032;-79
2021/11/14 09:48:21;;;;;;;127.97;20.30;;;;;;;10.82;73.31;97476.13;5059863;28;20040;-78
2021/11/14 09:50:48;;;;;;;149.90;20.55;;;;;;;10.82;73.53;97486.56;5036026;28;20032;-78
2021/11/14 09:53:14;;;;;;;182.95;22.55;;;;;;;10.74;73.58;97489.56;5052481;28;20039;-78
2021/11/14 09:55:39;;;;;;;143.18;20.33;;;;;;;10.64;74.11;97483.19;5036029;28;20108;-78
2021/11/14 09:58:06;;;;;;;86.70;17.80;;;;;;;10.60;74.09;97495.06;5052817;28;20029;-78
2021/11/14 10:00:33;;;;;;;157.55;23.00;;;;;;;10.71;74.02;97497.84;5052366;28;20494;-78
2021/11/14 10:02:59;;;;;;;124.43;22.52;;;;;;;10.65;74.18;97500.34;5019018;28;20036;-78
2021/11/14 10:05:24;;;;;;;121.55;21.13;;;;;;;10.68;74.20;97497.28;5052575;28;20202;-79
2021/11/14 10:08:09;;;;;;;225.45;36.65;;;;;;;10.43;74.48;97494.28;5035965;28;20033;-78
2021/11/14 10:10:51;;;;;;;56.65;18.45;;;;;;;10.60;73.96;97497.69;5052065;28;20111;-79
2021/11/14 10:13:27;;;;;;;156.75;23.05;;;;;;;10.52;73.99;97502.47;5018886;28;20040;-78
2021/11/14 10:16:09;;;;;;;109.32;22.70;;;;;;;10.40;74.05;97505.97;5035590;28;20167;-78
2021/11/14 10:18:36;;;;;;;205.68;28.92;;;;;;;10.71;73.49;97503.03;5052394;28;20114;-78
2021/11/14 10:21:02;;;;;;;166.32;24.35;;;;;;;10.52;74.34;97502.47;5018734;28;20351;-78
2021/11/14 10:23:31;;;;;;;131.45;22.92;;;;;;;10.50;74.22;97497.50;5035846;28;20639;-78
2021/11/14 10:25:58;;;;;;;116.75;21.77;;;;;;;10.44;74.29;97496.66;5035388;28;20017;-78
2021/11/14 10:28:27;;;;;;;144.88;27.02;;;;;;;10.57;73.96;97495.53;5038253;28;20115;-78
2021/11/14 10:30:53;;;;;;;235.88;32.75;;;;;;;10.63;74.01;97494.59;5077462;28;20047;-78
2021/11/14 10:33:19;;;;;;;97.72;23.48;;;;;;;10.71;73.59;97492.63;5031364;28;20028;-78
2021/11/14 10:35:48;;;;;;;98.78;25.27;;;;;;;10.76;73.87;97492.72;5048375;28;20112;-79
2021/11/14 10:38:16;;;;;;;101.18;25.38;;;;;;;10.81;73.44;97491.00;5051744;28;20440;-78
2021/11/14 10:40:47;;;;;;;109.88;23.08;;;;;;;10.49;74.45;97493.34;5022864;28;20418;-79
2021/11/14 10:43:16;;;;;;;66.43;20.50;;;;;;;10.78;73.85;97499.28;5050625;28;20486;-79
2021/11/14 10:45:42;;;;;;;99.22;24.92;;;;;;;10.72;73.93;97497.59;5051157;28;20029;-77
2021/11/14 10:48:12;;;;;;;51.47;20.90;;;;;;;10.57;74.41;97499.97;5017955;28;20032;-78
2021/11/14 10:50:40;;;;;;;48.92;21.92;;;;;;;10.63;74.07;97496.44;5034733;28;20044;-78
2021/11/14 10:53:10;;;;;;;53.40;20.38;;;;;;;10.37;74.71;97496.00;5018242;28;20033;-78
2021/11/14 10:55:47;;;;;;;50.92;22.23;;;;;;;10.44;74.71;97496.66;5030862;28;20029;-78
2021/11/14 10:58:14;;;;;;;56.42;22.92;;;;;;;10.58;74.74;97488.53;5030584;28;20039;-79
2021/11/14 11:00:41;;;;;;;47.85;20.40;;;;;;;10.61;74.72;97483.66;5049520;28;20437;-78
2021/11/14 11:03:08;;;;;;;44.42;20.60;;;;;;;10.85;74.20;97489.47;5017602;28;20029;-79
2021/11/14 11:05:34;;;;;;;49.47;21.52;;;;;;;10.86;73.89;97483.25;5017250;28;20032;-79
2021/11/14 11:08:04;;;;;;;43.38;20.08;;;;;;;10.76;74.31;97490.09;5060863;28;20036;-78
2021/11/14 11:10:32;;;;;;;39.47;21.25;;;;;;;10.62;74.38;97493.00;5034380;28;20039;-79
2021/11/14 11:12:59;;;;;;;44.47;20.63;;;;;;;10.85;74.20;97493.91;5050843;28;20058;-78
2021/11/14 11:15:25;;;;;;;36.08;18.75;;;;;;;10.92;73.94;97486.72;5050915;28;20412;-79
2021/11/14 11:17:52;;;;;;;46.92;23.23;;;;;;;10.88;73.85;97490.81;5019580;28;20020;-78
2021/11/14 11:20:20;;;;;;;43.05;22.13;;;;;;;11.01;73.49;97500.91;5034087;28;20040;-78
2021/11/14 11:22:51;;;;;;;42.55;22.08;;;;;;;11.08;73.20;97505.94;5031095;28;20036;-79
2021/11/14 11:25:30;;;;;;;45.30;23.60;;;;;;;10.78;73.64;97503.66;5065768;28;20082;-78
2021/11/14 11:27:56;;;;;;;36.10;20.08;;;;;;;11.03;73.74;97500.66;5051089;28;20032;-78
2021/11/14 11:30:37;;;;;;;35.97;21.13;;;;;;;10.93;73.46;97498.69;5049459;28;20043;-79